Aviation Digital Data Service (ADDS)

Output produced by METARs form (1442 UTC 23 January 2019)
found at http://www.aviationweather.gov/metar/data/
 
METAR text: LPMR 231400Z 34011KT 7000 -DZ SCT009 BKN013 BKN035 13/12 Q1019
Conditions at: LPMR (MONTE REAL(POR-A, PT) observed 1400 UTC 23 January 2019
Temperature: 13.0°C (55°F)
Dewpoint: 12.0°C (54°F) [RH = 94%]
Pressure (altimeter): 30.09 inches Hg (1019.0 mb)
Winds: from the NNW (340 degrees) at 13 MPH (11 knots; 5.7 m/s)
Visibility: 4 miles ( 7 km)
Ceiling: 1300 feet AGL
Clouds: scattered clouds at 900 feet AGL
broken clouds at 1300 feet AGL
broken clouds at 3500 feet AGL
Weather: -DZ  (light drizzle)

METAR text: LPMR 231300Z 32013KT 290V350 9999 SCT009 SCT012 BKN045 13/12 Q1020
Conditions at: LPMR (MONTE REAL(POR-A, PT) observed 1300 UTC 23 January 2019
Temperature: 13.0°C (55°F)
Dewpoint: 12.0°C (54°F) [RH = 94%]
Pressure (altimeter): 30.12 inches Hg (1020.0 mb)
Winds: from the NW (320 degrees) at 15 MPH (13 knots; 6.7 m/s)
Visibility: 6 or more miles (10+ km)
Ceiling: 4500 feet AGL
Clouds: scattered clouds at 900 feet AGL
scattered clouds at 1200 feet AGL
broken clouds at 4500 feet AGL
Weather: no significant weather observed at this time

METAR text: LPMR 231200Z 33015KT 9999 SCT016 BKN030 14/11 Q1020
Conditions at: LPMR (MONTE REAL(POR-A, PT) observed 1200 UTC 23 January 2019
Temperature: 14.0°C (57°F)
Dewpoint: 11.0°C (52°F) [RH = 82%]
Pressure (altimeter): 30.12 inches Hg (1020.0 mb)
Winds: from the NNW (330 degrees) at 17 MPH (15 knots; 7.7 m/s)
Visibility: 6 or more miles (10+ km)
Ceiling: 3000 feet AGL
Clouds: scattered clouds at 1600 feet AGL
broken clouds at 3000 feet AGL
Weather: no significant weather observed at this time

METAR text: LPMR 231100Z 33014KT 9999 SCT016 SCT025 14/11 Q1021
Conditions at: LPMR (MONTE REAL(POR-A, PT) observed 1100 UTC 23 January 2019
Temperature: 14.0°C (57°F)
Dewpoint: 11.0°C (52°F) [RH = 82%]
Pressure (altimeter): 30.15 inches Hg (1021.0 mb)
Winds: from the NNW (330 degrees) at 16 MPH (14 knots; 7.2 m/s)
Visibility: 6 or more miles (10+ km)
Ceiling: at least 12,000 feet AGL
Clouds: scattered clouds at 1600 feet AGL
scattered clouds at 2500 feet AGL
Weather: no significant weather observed at this time

METAR text: LPMR 231000Z 33014G24KT 9999 FEW020 BKN030 13/10 Q1020
Conditions at: LPMR (MONTE REAL(POR-A, PT) observed 1000 UTC 23 January 2019
Temperature: 13.0°C (55°F)
Dewpoint: 10.0°C (50°F) [RH = 82%]
Pressure (altimeter): 30.12 inches Hg (1020.0 mb)
Winds: from the NNW (330 degrees) at 16 MPH (14 knots; 7.2 m/s)
gusting to 28 MPH (24 knots; 12.3 m/s)
Visibility: 6 or more miles (10+ km)
Ceiling: 3000 feet AGL
Clouds: few clouds at 2000 feet AGL
broken clouds at 3000 feet AGL
Weather: no significant weather observed at this time

METAR text: LPMR 230900Z 33013KT 9999 FEW025 BKN045 13/10 Q1020
Conditions at: LPMR (MONTE REAL(POR-A, PT) observed 0900 UTC 23 January 2019
Temperature: 13.0°C (55°F)
Dewpoint: 10.0°C (50°F) [RH = 82%]
Pressure (altimeter): 30.12 inches Hg (1020.0 mb)
Winds: from the NNW (330 degrees) at 15 MPH (13 knots; 6.7 m/s)
Visibility: 6 or more miles (10+ km)
Ceiling: 4500 feet AGL
Clouds: few clouds at 2500 feet AGL
broken clouds at 4500 feet AGL
Weather: no significant weather observed at this time

METAR text: LPMR 230800Z 32014KT 9999 SCT022 BKN040 12/10 Q1019
Conditions at: LPMR (MONTE REAL(POR-A, PT) observed 0800 UTC 23 January 2019
Temperature: 12.0°C (54°F)
Dewpoint: 10.0°C (50°F) [RH = 88%]
Pressure (altimeter): 30.09 inches Hg (1019.0 mb)
Winds: from the NW (320 degrees) at 16 MPH (14 knots; 7.2 m/s)
Visibility: 6 or more miles (10+ km)
Ceiling: 4000 feet AGL
Clouds: scattered clouds at 2200 feet AGL
broken clouds at 4000 feet AGL
Weather: no significant weather observed at this time

METAR text: LPMR 230700Z 33013KT 9999 SCT020 SCT035 12/09 Q1019
Conditions at: LPMR (MONTE REAL(POR-A, PT) observed 0700 UTC 23 January 2019
Temperature: 12.0°C (54°F)
Dewpoint: 9.0°C (48°F) [RH = 82%]
Pressure (altimeter): 30.09 inches Hg (1019.0 mb)
Winds: from the NNW (330 degrees) at 15 MPH (13 knots; 6.7 m/s)
Visibility: 6 or more miles (10+ km)
Ceiling: at least 12,000 feet AGL
Clouds: scattered clouds at 2000 feet AGL
scattered clouds at 3500 feet AGL
Weather: no significant weather observed at this time

METAR text: LPMR 230600Z 34016G29KT 9999 SCT018 BKN035 12/10 Q1020
Conditions at: LPMR (MONTE REAL(POR-A, PT) observed 0600 UTC 23 January 2019
Temperature: 12.0°C (54°F)
Dewpoint: 10.0°C (50°F) [RH = 88%]
Pressure (altimeter): 30.12 inches Hg (1020.0 mb)
Winds: from the NNW (340 degrees) at 18 MPH (16 knots; 8.2 m/s)
gusting to 33 MPH (29 knots; 14.9 m/s)
Visibility: 6 or more miles (10+ km)
Ceiling: 3500 feet AGL
Clouds: scattered clouds at 1800 feet AGL
broken clouds at 3500 feet AGL
Weather: no significant weather observed at this time

METAR text: LPMR 230500Z 35019G32KT 6000 -RA FEW010 BKN015 BKN035 11/10 Q1020
Conditions at: LPMR (MONTE REAL(POR-A, PT) observed 0500 UTC 23 January 2019
Temperature: 11.0°C (52°F)
Dewpoint: 10.0°C (50°F) [RH = 94%]
Pressure (altimeter): 30.12 inches Hg (1020.0 mb)
Winds: from the N (350 degrees) at 22 MPH (19 knots; 9.8 m/s)
gusting to 37 MPH (32 knots; 16.5 m/s)
Visibility: 4 miles ( 6 km)
Ceiling: 1500 feet AGL
Clouds: few clouds at 1000 feet AGL
broken clouds at 1500 feet AGL
broken clouds at 3500 feet AGL
Weather: -RA  (light rain)

METAR text: LPMR 230400Z 35013KT 7000 -RA BKN015 BKN035 11/10 Q1020
Conditions at: LPMR (MONTE REAL(POR-A, PT) observed 0400 UTC 23 January 2019
Temperature: 11.0°C (52°F)
Dewpoint: 10.0°C (50°F) [RH = 94%]
Pressure (altimeter): 30.12 inches Hg (1020.0 mb)
Winds: from the N (350 degrees) at 15 MPH (13 knots; 6.7 m/s)
Visibility: 4 miles ( 7 km)
Ceiling: 1500 feet AGL
Clouds: broken clouds at 1500 feet AGL
broken clouds at 3500 feet AGL
Weather: -RA  (light rain)

METAR text: LPMR 230300Z 32012G22KT 7000 -RA BKN015 BKN040 11/11 Q1020
Conditions at: LPMR (MONTE REAL(POR-A, PT) observed 0300 UTC 23 January 2019
Temperature: 11.0°C (52°F)
Dewpoint: 11.0°C (52°F) [RH = 100%]
Pressure (altimeter): 30.12 inches Hg (1020.0 mb)
Winds: from the NW (320 degrees) at 14 MPH (12 knots; 6.2 m/s)
gusting to 25 MPH (22 knots; 11.3 m/s)
Visibility: 4 miles ( 7 km)
Ceiling: 1500 feet AGL
Clouds: broken clouds at 1500 feet AGL
broken clouds at 4000 feet AGL
Weather: -RA  (light rain)

METAR text: LPMR 230200Z 33012KT 9999 SCT018 BKN040 12/10 Q1020
Conditions at: LPMR (MONTE REAL(POR-A, PT) observed 0200 UTC 23 January 2019
Temperature: 12.0°C (54°F)
Dewpoint: 10.0°C (50°F) [RH = 88%]
Pressure (altimeter): 30.12 inches Hg (1020.0 mb)
Winds: from the NNW (330 degrees) at 14 MPH (12 knots; 6.2 m/s)
Visibility: 6 or more miles (10+ km)
Ceiling: 4000 feet AGL
Clouds: scattered clouds at 1800 feet AGL
broken clouds at 4000 feet AGL
Weather: no significant weather observed at this time

METAR text: LPMR 230100Z 33012KT 9999 BKN018 BKN040 12/10 Q1021
Conditions at: LPMR (MONTE REAL(POR-A, PT) observed 0100 UTC 23 January 2019
Temperature: 12.0°C (54°F)
Dewpoint: 10.0°C (50°F) [RH = 88%]
Pressure (altimeter): 30.15 inches Hg (1021.0 mb)
Winds: from the NNW (330 degrees) at 14 MPH (12 knots; 6.2 m/s)
Visibility: 6 or more miles (10+ km)
Ceiling: 1800 feet AGL
Clouds: broken clouds at 1800 feet AGL
broken clouds at 4000 feet AGL
Weather: no significant weather observed at this time

METAR text: LPMR 230000Z 33015KT 9999 -RA FEW012 BKN018 BKN040 12/10 Q1021
Conditions at: LPMR (MONTE REAL(POR-A, PT) observed 0000 UTC 23 January 2019
Temperature: 12.0°C (54°F)
Dewpoint: 10.0°C (50°F) [RH = 88%]
Pressure (altimeter): 30.15 inches Hg (1021.0 mb)
Winds: from the NNW (330 degrees) at 17 MPH (15 knots; 7.7 m/s)
Visibility: 6 or more miles (10+ km)
Ceiling: 1800 feet AGL
Clouds: few clouds at 1200 feet AGL
broken clouds at 1800 feet AGL
broken clouds at 4000 feet AGL
Weather: -RA  (light rain)

METAR text: LPMR 222300Z 33013KT 9999 SCT018 SCT045 11/10 Q1021
Conditions at: LPMR (MONTE REAL(POR-A, PT) observed 2300 UTC 22 January 2019
Temperature: 11.0°C (52°F)
Dewpoint: 10.0°C (50°F) [RH = 94%]
Pressure (altimeter): 30.15 inches Hg (1021.0 mb)
Winds: from the NNW (330 degrees) at 15 MPH (13 knots; 6.7 m/s)
Visibility: 6 or more miles (10+ km)
Ceiling: at least 12,000 feet AGL
Clouds: scattered clouds at 1800 feet AGL
scattered clouds at 4500 feet AGL
Weather: no significant weather observed at this time

METAR text: LPMR 222200Z 34014KT 9999 FEW012 BKN018 BKN045 12/09 Q1021
Conditions at: LPMR (MONTE REAL(POR-A, PT) observed 2200 UTC 22 January 2019
Temperature: 12.0°C (54°F)
Dewpoint: 9.0°C (48°F) [RH = 82%]
Pressure (altimeter): 30.15 inches Hg (1021.0 mb)
Winds: from the NNW (340 degrees) at 16 MPH (14 knots; 7.2 m/s)
Visibility: 6 or more miles (10+ km)
Ceiling: 1800 feet AGL
Clouds: few clouds at 1200 feet AGL
broken clouds at 1800 feet AGL
broken clouds at 4500 feet AGL
Weather: no significant weather observed at this time

METAR text: LPMR 222100Z 33010KT 9999 FEW018 SCT025 BKN045 12/09 Q1021
Conditions at: LPMR (MONTE REAL(POR-A, PT) observed 2100 UTC 22 January 2019
Temperature: 12.0°C (54°F)
Dewpoint: 9.0°C (48°F) [RH = 82%]
Pressure (altimeter): 30.15 inches Hg (1021.0 mb)
Winds: from the NNW (330 degrees) at 12 MPH (10 knots; 5.1 m/s)
Visibility: 6 or more miles (10+ km)
Ceiling: 4500 feet AGL
Clouds: few clouds at 1800 feet AGL
scattered clouds at 2500 feet AGL
broken clouds at 4500 feet AGL
Weather: no significant weather observed at this time

METAR text: LPMR 222000Z 36014KT 9999 SCT018 BKN025 BKN045 11/09 Q1021
Conditions at: LPMR (MONTE REAL(POR-A, PT) observed 2000 UTC 22 January 2019
Temperature: 11.0°C (52°F)
Dewpoint: 9.0°C (48°F) [RH = 87%]
Pressure (altimeter): 30.15 inches Hg (1021.0 mb)
Winds: from the N (360 degrees) at 16 MPH (14 knots; 7.2 m/s)
Visibility: 6 or more miles (10+ km)
Ceiling: 2500 feet AGL
Clouds: scattered clouds at 1800 feet AGL
broken clouds at 2500 feet AGL
broken clouds at 4500 feet AGL
Weather: no significant weather observed at this time

METAR text: LPMR 221900Z 34008KT 9999 SCT018 BKN030 12/08 Q1021
Conditions at: LPMR (MONTE REAL(POR-A, PT) observed 1900 UTC 22 January 2019
Temperature: 12.0°C (54°F)
Dewpoint: 8.0°C (46°F) [RH = 76%]
Pressure (altimeter): 30.15 inches Hg (1021.0 mb)
Winds: from the NNW (340 degrees) at 9 MPH (8 knots; 4.1 m/s)
Visibility: 6 or more miles (10+ km)
Ceiling: 3000 feet AGL
Clouds: scattered clouds at 1800 feet AGL
broken clouds at 3000 feet AGL
Weather: no significant weather observed at this time

METAR text: LPMR 221800Z 35012KT 9999 FEW010 SCT014 OVC022 12/09 Q1021
Conditions at: LPMR (MONTE REAL(POR-A, PT) observed 1800 UTC 22 January 2019
Temperature: 12.0°C (54°F)
Dewpoint: 9.0°C (48°F) [RH = 82%]
Pressure (altimeter): 30.15 inches Hg (1021.0 mb)
Winds: from the N (350 degrees) at 14 MPH (12 knots; 6.2 m/s)
Visibility: 6 or more miles (10+ km)
Ceiling: 2200 feet AGL
Clouds: few clouds at 1000 feet AGL
scattered clouds at 1400 feet AGL
overcast cloud deck at 2200 feet AGL
Weather: no significant weather observed at this time

METAR text: LPMR 221700Z 35014KT 9000 SCT007 BKN014 OVC020 12/11 Q1021
Conditions at: LPMR (MONTE REAL(POR-A, PT) observed 1700 UTC 22 January 2019
Temperature: 12.0°C (54°F)
Dewpoint: 11.0°C (52°F) [RH = 94%]
Pressure (altimeter): 30.15 inches Hg (1021.0 mb)
Winds: from the N (350 degrees) at 16 MPH (14 knots; 7.2 m/s)
Visibility: 6 miles ( 9 km)
Ceiling: 1400 feet AGL
Clouds: scattered clouds at 700 feet AGL
broken clouds at 1400 feet AGL
overcast cloud deck at 2000 feet AGL
Weather: no significant weather observed at this time

METAR text: LPMR 221600Z 29012KT 260V330 2000 RADZ BR BKN005 BKN012 OVC016 12/12 Q1021
Conditions at: LPMR (MONTE REAL(POR-A, PT) observed 1600 UTC 22 January 2019
Temperature: 12.0°C (54°F)
Dewpoint: 12.0°C (54°F) [RH = 100%]
Pressure (altimeter): 30.15 inches Hg (1021.0 mb)
Winds: from the WNW (290 degrees) at 14 MPH (12 knots; 6.2 m/s)
Visibility: 1.24 miles (2.00 km)
Ceiling: 500 feet AGL
Clouds: broken clouds at 500 feet AGL
broken clouds at 1200 feet AGL
overcast cloud deck at 1600 feet AGL
Weather: RA DZ BR  (moderate rain, moderate drizzle, mist)

METAR text: LPMR 221500Z 28012KT 9999 BKN016 BKN023 13/10 Q1021
Conditions at: LPMR (MONTE REAL(POR-A, PT) observed 1500 UTC 22 January 2019
Temperature: 13.0°C (55°F)
Dewpoint: 10.0°C (50°F) [RH = 82%]
Pressure (altimeter): 30.15 inches Hg (1021.0 mb)
Winds: from the W (280 degrees) at 14 MPH (12 knots; 6.2 m/s)
Visibility: 6 or more miles (10+ km)
Ceiling: 1600 feet AGL
Clouds: broken clouds at 1600 feet AGL
broken clouds at 2300 feet AGL
Weather: no significant weather observed at this time

METAR text: LPMR 221400Z 30011KT 270V340 9999 SCT020 BKN023 13/09 Q1022
Conditions at: LPMR (MONTE REAL(POR-A, PT) observed 1400 UTC 22 January 2019
Temperature: 13.0°C (55°F)
Dewpoint: 9.0°C (48°F) [RH = 77%]
Pressure (altimeter): 30.18 inches Hg (1022.0 mb)
Winds: from the WNW (300 degrees) at 13 MPH (11 knots; 5.7 m/s)
Visibility: 6 or more miles (10+ km)
Ceiling: 2300 feet AGL
Clouds: scattered clouds at 2000 feet AGL
broken clouds at 2300 feet AGL
Weather: no significant weather observed at this time

METAR text: LPMR 221300Z 32013KT 280V340 9999 SCT022 SCT040 13/09 Q1023
Conditions at: LPMR (MONTE REAL(POR-A, PT) observed 1300 UTC 22 January 2019
Temperature: 13.0°C (55°F)
Dewpoint: 9.0°C (48°F) [RH = 77%]
Pressure (altimeter): 30.21 inches Hg (1023.0 mb)
Winds: from the NW (320 degrees) at 15 MPH (13 knots; 6.7 m/s)
Visibility: 6 or more miles (10+ km)
Ceiling: at least 12,000 feet AGL
Clouds: scattered clouds at 2200 feet AGL
scattered clouds at 4000 feet AGL
Weather: no significant weather observed at this time

METAR text: LPMR 221200Z 33011KT 310V010 9999 SCT022 BKN040 12/09 Q1024
Conditions at: LPMR (MONTE REAL(POR-A, PT) observed 1200 UTC 22 January 2019
Temperature: 12.0°C (54°F)
Dewpoint: 9.0°C (48°F) [RH = 82%]
Pressure (altimeter): 30.24 inches Hg (1024.0 mb)
Winds: from the NNW (330 degrees) at 13 MPH (11 knots; 5.7 m/s)
Visibility: 6 or more miles (10+ km)
Ceiling: 4000 feet AGL
Clouds: scattered clouds at 2200 feet AGL
broken clouds at 4000 feet AGL
Weather: no significant weather observed at this time

METAR text: LPMR 221100Z 30009KT 9999 SCT022 BKN045 11/10 Q1024
Conditions at: LPMR (MONTE REAL(POR-A, PT) observed 1100 UTC 22 January 2019
Temperature: 11.0°C (52°F)
Dewpoint: 10.0°C (50°F) [RH = 94%]
Pressure (altimeter): 30.24 inches Hg (1024.0 mb)
Winds: from the WNW (300 degrees) at 10 MPH (9 knots; 4.6 m/s)
Visibility: 6 or more miles (10+ km)
Ceiling: 4500 feet AGL
Clouds: scattered clouds at 2200 feet AGL
broken clouds at 4500 feet AGL
Weather: no significant weather observed at this time

METAR text: LPMR 221000Z 32010KT 290V350 9999 FEW025 BKN042 12/08 Q1024
Conditions at: LPMR (MONTE REAL(POR-A, PT) observed 1000 UTC 22 January 2019
Temperature: 12.0°C (54°F)
Dewpoint: 8.0°C (46°F) [RH = 76%]
Pressure (altimeter): 30.24 inches Hg (1024.0 mb)
Winds: from the NW (320 degrees) at 12 MPH (10 knots; 5.1 m/s)
Visibility: 6 or more miles (10+ km)
Ceiling: 4200 feet AGL
Clouds: few clouds at 2500 feet AGL
broken clouds at 4200 feet AGL
Weather: no significant weather observed at this time

METAR text: LPMR 220900Z 34009KT 9999 FEW022 BKN042 11/07 Q1024
Conditions at: LPMR (MONTE REAL(POR-A, PT) observed 0900 UTC 22 January 2019
Temperature: 11.0°C (52°F)
Dewpoint: 7.0°C (45°F) [RH = 76%]
Pressure (altimeter): 30.24 inches Hg (1024.0 mb)
Winds: from the NNW (340 degrees) at 10 MPH (9 knots; 4.6 m/s)
Visibility: 6 or more miles (10+ km)
Ceiling: 4200 feet AGL
Clouds: few clouds at 2200 feet AGL
broken clouds at 4200 feet AGL
Weather: no significant weather observed at this time

METAR text: LPMR 220800Z 34009KT 9999 FEW022 SCT045 11/06 Q1024
Conditions at: LPMR (MONTE REAL(POR-A, PT) observed 0800 UTC 22 January 2019
Temperature: 11.0°C (52°F)
Dewpoint: 6.0°C (43°F) [RH = 71%]
Pressure (altimeter): 30.24 inches Hg (1024.0 mb)
Winds: from the NNW (340 degrees) at 10 MPH (9 knots; 4.6 m/s)
Visibility: 6 or more miles (10+ km)
Ceiling: at least 12,000 feet AGL
Clouds: few clouds at 2200 feet AGL
scattered clouds at 4500 feet AGL
Weather: no significant weather observed at this time

METAR text: LPMR 220700Z 34011KT 9999 FEW022 11/06 Q1024
Conditions at: LPMR (MONTE REAL(POR-A, PT) observed 0700 UTC 22 January 2019
Temperature: 11.0°C (52°F)
Dewpoint: 6.0°C (43°F) [RH = 71%]
Pressure (altimeter): 30.24 inches Hg (1024.0 mb)
Winds: from the NNW (340 degrees) at 13 MPH (11 knots; 5.7 m/s)
Visibility: 6 or more miles (10+ km)
Ceiling: at least 12,000 feet AGL
Clouds: few clouds at 2200 feet AGL
Weather: no significant weather observed at this time

METAR text: LPMR 220600Z 34009KT 9999 FEW022 BKN045 11/07 Q1024
Conditions at: LPMR (MONTE REAL(POR-A, PT) observed 0600 UTC 22 January 2019
Temperature: 11.0°C (52°F)
Dewpoint: 7.0°C (45°F) [RH = 76%]
Pressure (altimeter): 30.24 inches Hg (1024.0 mb)
Winds: from the NNW (340 degrees) at 10 MPH (9 knots; 4.6 m/s)
Visibility: 6 or more miles (10+ km)
Ceiling: 4500 feet AGL
Clouds: few clouds at 2200 feet AGL
broken clouds at 4500 feet AGL
Weather: no significant weather observed at this time

METAR text: LPMR 220500Z 36006KT 330V030 8000 SCT022 BKN042 09/07 Q1023
Conditions at: LPMR (MONTE REAL(POR-A, PT) observed 0500 UTC 22 January 2019
Temperature: 9.0°C (48°F)
Dewpoint: 7.0°C (45°F) [RH = 87%]
Pressure (altimeter): 30.21 inches Hg (1023.0 mb)
Winds: from the N (360 degrees) at 7 MPH (6 knots; 3.1 m/s)
Visibility: 5 miles ( 8 km)
Ceiling: 4200 feet AGL
Clouds: scattered clouds at 2200 feet AGL
broken clouds at 4200 feet AGL
Weather: no significant weather observed at this time

METAR text: LPMR 220400Z VRB01KT 8000 SCT022 BKN042 06/06 Q1024
Conditions at: LPMR (MONTE REAL(POR-A, PT) observed 0400 UTC 22 January 2019
Temperature: 6.0°C (43°F)
Dewpoint: 6.0°C (43°F) [RH = 100%]
Pressure (altimeter): 30.24 inches Hg (1024.0 mb)
Winds: variable direction winds at 1 MPH (1 knots; 0.5 m/s)
Visibility: 5 miles ( 8 km)
Ceiling: 4200 feet AGL
Clouds: scattered clouds at 2200 feet AGL
broken clouds at 4200 feet AGL
Weather: no significant weather observed at this time

METAR text: LPMR 220300Z VRB01KT 6000 BKN042 06/05 Q1024
Conditions at: LPMR (MONTE REAL(POR-A, PT) observed 0300 UTC 22 January 2019
Temperature: 6.0°C (43°F)
Dewpoint: 5.0°C (41°F) [RH = 93%]
Pressure (altimeter): 30.24 inches Hg (1024.0 mb)
Winds: variable direction winds at 1 MPH (1 knots; 0.5 m/s)
Visibility: 4 miles ( 6 km)
Ceiling: 4200 feet AGL
Clouds: broken clouds at 4200 feet AGL
Weather: no significant weather observed at this time

Forecast for: AMD
Text: TAF AMD LPMR 231404Z 2314/2412 34015KT 9999 FEW014 BKN030
Forecast period: 1400 UTC 23 January 2019 to 1200 UTC 24 January 2019
Forecast type: FROM: standard forecast or significant change
Winds: from the NNW (340 degrees) at 17 MPH (15 knots; 7.7 m/s)
Visibility: 6 or more miles 10+ km)
Ceiling: 3000 feet AGL
Clouds: few clouds at 1400 feet AGL
broken clouds at 3000 feet AGL
Weather: no significant weather forecast for this period
Text: TEMPO 2314/2412 35018G30KT 7000 -RA SCT008 BKN012
Forecast period: 1400 UTC 23 January 2019 to 1200 UTC 24 January 2019
Forecast type: TEMPORARY: The following changes expected for less than half the time period
Winds: from the N (350 degrees) at 21 MPH (18 knots; 9.3 m/s)
gusting to 34 MPH (30 knots; 15.4 m/s)
Visibility: 4 miles (7 km)
Ceiling: 1200 feet AGL
Clouds: scattered clouds at 800 feet AGL
broken clouds at 1200 feet AGL
Weather: -RA  (light rain)
Text: PROB40
Forecast period: 1400 to 1800 UTC 23 January 2019
Forecast type: TEMPORARY: The following changes expected for less than half the time period
Winds: from the N (350 degrees) at 26 MPH (23 knots; 11.8 m/s)
gusting to 40 MPH (35 knots; 18.0 m/s)
Visibility: 1.86 miles (2.99 km)
Ceiling: unknown
Clouds: missing
Weather: -RA -DZ  (light rain, light drizzle)
Text: TEMPO 2314/2318 35023G35KT 3000 -RADZ
Forecast period: 1800 UTC 23 January 2019 to 0900 UTC 24 January 2019
Forecast type: TEMPORARY: The following changes expected for less than half the time period
Visibility: 1.86 miles (2.99 km)
Ceiling: 500 feet AGL
Clouds: broken clouds at 500 feet AGL
Weather: -RA -DZ BR  (light rain, light drizzle, mist)